createdAt,value
2023-06-20T00:00:41.386Z,19.52
2023-06-20T00:03:30.315Z,19.47
2023-06-20T00:05:58.096Z,19.46
2023-06-20T00:08:25.906Z,19.48
2023-06-20T00:10:53.699Z,19.54
2023-06-20T00:13:21.731Z,19.56
2023-06-20T00:15:49.679Z,19.53
2023-06-20T00:18:18.926Z,19.49
2023-06-20T00:20:47.499Z,19.52
2023-06-20T00:23:15.318Z,19.57
2023-06-20T00:25:43.188Z,19.54
2023-06-20T00:28:13.735Z,19.50
2023-06-20T00:30:41.516Z,19.48
2023-06-20T00:33:10.172Z,19.51
2023-06-20T00:35:38.486Z,19.51
2023-06-20T00:38:07.943Z,19.50
2023-06-20T00:40:35.736Z,19.51
2023-06-20T00:43:05.175Z,19.51
2023-06-20T00:45:34.556Z,19.47
2023-06-20T00:48:07.802Z,19.47
2023-06-20T00:50:36.351Z,19.49
2023-06-20T00:53:06.961Z,19.50
2023-06-20T00:55:37.022Z,19.51
2023-06-20T00:58:05.968Z,19.43
2023-06-20T01:00:35.594Z,19.40
2023-06-20T01:03:07.914Z,19.36
2023-06-20T01:05:38.225Z,19.31
2023-06-20T01:08:22.505Z,19.25
2023-06-20T01:10:58.858Z,19.19
2023-06-20T01:13:41.504Z,19.16
2023-06-20T01:16:28.010Z,19.13
2023-06-20T01:19:07.564Z,19.11
2023-06-20T01:21:43.203Z,19.07
2023-06-20T01:24:18.859Z,19.06
2023-06-20T01:26:59.032Z,19.02
2023-06-20T01:29:34.320Z,18.95
2023-06-20T01:32:07.576Z,18.92
2023-06-20T01:34:40.696Z,18.89
2023-06-20T01:37:14.693Z,18.87
2023-06-20T01:39:48.510Z,18.84
2023-06-20T01:42:21.127Z,18.78
2023-06-20T01:44:51.283Z,18.72
2023-06-20T01:47:20.596Z,18.64
2023-06-20T01:49:52.794Z,18.67
2023-06-20T01:52:22.123Z,18.71
2023-06-20T01:54:52.006Z,18.73
2023-06-20T01:57:21.645Z,18.73
2023-06-20T01:59:51.245Z,18.70
2023-06-20T02:02:20.967Z,18.66
2023-06-20T02:04:50.432Z,18.65
2023-06-20T02:07:19.036Z,18.61
2023-06-20T02:09:47.592Z,18.60
2023-06-20T02:12:17.485Z,18.57
2023-06-20T02:14:49.282Z,18.54
2023-06-20T02:17:19.499Z,18.51
2023-06-20T02:19:47.699Z,18.49
2023-06-20T02:22:18.428Z,18.47
2023-06-20T02:24:49.123Z,18.43
2023-06-20T02:27:20.558Z,18.40
2023-06-20T02:29:48.968Z,18.40
2023-06-20T02:32:18.527Z,18.37
2023-06-20T02:34:48.987Z,18.33
2023-06-20T02:37:16.912Z,18.31
2023-06-20T02:39:44.617Z,18.26
2023-06-20T02:42:12.476Z,18.26
2023-06-20T02:44:40.301Z,18.29
2023-06-20T02:47:40.567Z,18.32
2023-06-20T02:50:24.957Z,18.31
2023-06-20T02:53:02.038Z,18.32
2023-06-20T02:55:56.445Z,18.31
2023-06-20T02:58:27.455Z,18.25
2023-06-20T03:00:58.494Z,18.21
2023-06-20T03:03:34.338Z,18.24
2023-06-20T03:06:02.931Z,18.27
2023-06-20T03:08:31.591Z,18.28
2023-06-20T03:11:00.142Z,18.32
2023-06-20T03:13:28.797Z,18.36
2023-06-20T03:15:56.664Z,18.37
2023-06-20T03:18:26.017Z,18.32
2023-06-20T03:20:54.229Z,18.31
2023-06-20T03:23:22.101Z,18.28
2023-06-20T03:25:49.804Z,18.24
2023-06-20T03:28:17.586Z,18.30
2023-06-20T03:30:45.580Z,18.33
2023-06-20T03:33:13.475Z,18.35
2023-06-20T03:35:41.346Z,18.28
2023-06-20T03:38:09.146Z,18.20
2023-06-20T03:40:37.075Z,18.17
2023-06-20T03:43:04.834Z,18.24
2023-06-20T03:45:33.085Z,18.31
2023-06-20T03:48:00.986Z,18.31
2023-06-20T03:50:28.811Z,18.37
2023-06-20T03:52:56.509Z,18.46
2023-06-20T03:55:24.789Z,18.56
2023-06-20T03:57:52.952Z,18.63
2023-06-20T04:00:21.374Z,18.53
2023-06-20T04:02:49.579Z,18.49
2023-06-20T04:05:20.045Z,18.49
2023-06-20T04:07:48.249Z,18.51
2023-06-20T04:10:16.163Z,18.60
2023-06-20T04:12:44.271Z,18.67
2023-06-20T04:15:12.139Z,18.72
2023-06-20T04:17:42.356Z,18.84
2023-06-20T04:20:14.488Z,18.92
2023-06-20T04:22:46.255Z,18.93
2023-06-20T04:25:15.690Z,19.02
2023-06-20T04:27:43.737Z,19.17
2023-06-20T04:30:11.970Z,19.27
2023-06-20T04:32:40.577Z,19.33
2023-06-20T04:35:11.906Z,19.44
2023-06-20T04:37:42.834Z,19.56
2023-06-20T04:40:12.602Z,19.65
2023-06-20T04:42:40.449Z,19.66
2023-06-20T04:45:10.287Z,19.66
2023-06-20T04:47:38.521Z,19.81
2023-06-20T04:50:10.442Z,19.98
2023-06-20T04:52:38.399Z,20.16
2023-06-20T04:55:06.717Z,20.28
2023-06-20T04:57:35.187Z,20.44
2023-06-20T05:00:15.945Z,20.61
2023-06-20T05:02:43.858Z,20.73
2023-06-20T05:05:12.288Z,20.83
2023-06-20T05:07:43.567Z,20.95
2023-06-20T05:10:11.422Z,21.07
2023-06-20T05:12:39.196Z,21.23
2023-06-20T05:15:09.176Z,21.42
2023-06-20T05:17:37.064Z,21.63
2023-06-20T05:20:07.573Z,21.90
2023-06-20T05:22:36.062Z,22.03
2023-06-20T05:25:04.104Z,22.27
2023-06-20T05:27:33.616Z,22.53
2023-06-20T05:30:01.619Z,22.77
2023-06-20T05:32:31.447Z,23.01
2023-06-20T05:35:00.421Z,23.24
2023-06-20T05:37:32.137Z,23.49
2023-06-20T05:40:01.728Z,23.56
2023-06-20T05:42:33.031Z,23.75
2023-06-20T05:45:01.025Z,23.89
2023-06-20T05:47:29.808Z,24.04
2023-06-20T05:49:58.627Z,24.21
2023-06-20T05:52:26.552Z,24.35
2023-06-20T05:54:54.978Z,24.53
2023-06-20T05:57:22.981Z,24.65
2023-06-20T05:59:51.267Z,24.78
2023-06-20T06:02:20.662Z,24.94
2023-06-20T06:04:49.315Z,25.14
2023-06-20T06:07:17.240Z,25.31
2023-06-20T06:09:47.798Z,25.49
2023-06-20T06:12:16.068Z,25.71
2023-06-20T06:14:43.856Z,25.93
2023-06-20T06:17:11.654Z,26.17
2023-06-20T06:19:39.543Z,26.39
2023-06-20T06:22:07.576Z,26.55
2023-06-20T06:24:35.549Z,26.70
2023-06-20T06:27:05.302Z,26.88
2023-06-20T06:29:33.088Z,27.09
2023-06-20T06:32:01.464Z,27.20
2023-06-20T06:34:29.701Z,27.32
2023-06-20T06:36:57.748Z,27.61
2023-06-20T06:39:26.498Z,28.07
2023-06-20T06:41:54.884Z,28.32
2023-06-20T06:44:22.742Z,28.50
2023-06-20T06:46:50.679Z,28.67
2023-06-20T06:49:18.569Z,28.98
2023-06-20T06:51:48.277Z,29.04
2023-06-20T06:54:16.994Z,29.10
2023-06-20T06:56:44.721Z,29.37
2023-06-20T06:59:12.461Z,29.77
2023-06-20T07:01:40.549Z,30.16
2023-06-20T07:04:08.441Z,30.35
2023-06-20T07:06:36.224Z,30.27
2023-06-20T07:09:04.019Z,30.45
2023-06-20T07:11:31.953Z,30.89
2023-06-20T07:13:59.882Z,31.09
2023-06-20T07:16:27.763Z,31.15
2023-06-20T07:18:55.660Z,31.09
2023-06-20T07:21:23.440Z,31.10
2023-06-20T07:23:51.154Z,31.25
2023-06-20T07:26:18.925Z,31.55
2023-06-20T07:28:46.854Z,31.84
2023-06-20T07:33:09.373Z,32.10
2023-06-20T07:35:35.862Z,32.29
2023-06-20T07:38:02.261Z,32.62
2023-06-20T07:40:28.707Z,32.73
2023-06-20T07:42:56.461Z,32.93
2023-06-20T07:45:22.980Z,33.25
2023-06-20T07:47:49.504Z,33.54
2023-06-20T07:50:16.089Z,33.75
2023-06-20T07:52:43.329Z,33.95
2023-06-20T07:55:20.367Z,34.13
2023-06-20T07:57:54.385Z,34.30
2023-06-20T08:00:21.815Z,34.44
2023-06-20T08:02:48.175Z,34.69
2023-06-20T08:05:14.597Z,34.89
2023-06-20T08:07:41.911Z,35.11
2023-06-20T08:10:10.817Z,35.33
2023-06-20T08:12:38.119Z,35.32
2023-06-20T08:15:06.262Z,35.42
2023-06-20T08:17:50.571Z,35.39
2023-06-20T08:20:18.358Z,34.99
2023-06-20T08:22:46.082Z,34.78
2023-06-20T08:25:13.887Z,34.75
2023-06-20T08:27:41.665Z,35.19
2023-06-20T08:40:32.103Z,36.11
2023-06-20T08:42:59.982Z,35.85
2023-06-20T08:45:30.773Z,36.00
2023-06-20T08:48:00.592Z,36.17
2023-06-20T08:50:31.609Z,35.80
2023-06-20T08:53:05.667Z,35.50
2023-06-20T08:55:36.031Z,36.08
2023-06-20T08:58:07.889Z,36.59
2023-06-20T09:00:35.725Z,36.56
2023-06-20T09:03:04.258Z,35.66
2023-06-20T09:05:33.639Z,34.88
2023-06-20T09:08:01.681Z,34.20
2023-06-20T09:10:29.827Z,33.69
2023-06-20T09:12:58.192Z,33.21
2023-06-20T09:15:28.063Z,32.81
2023-06-20T09:17:59.498Z,32.41
2023-06-20T09:20:29.689Z,32.15
2023-06-20T09:22:59.121Z,32.00
2023-06-20T09:25:30.161Z,31.89
2023-06-20T09:27:58.829Z,31.96
2023-06-20T09:30:31.924Z,32.26
2023-06-20T09:33:07.148Z,33.04
2023-06-20T09:35:35.143Z,33.29
2023-06-20T09:38:05.598Z,33.58
2023-06-20T09:40:45.816Z,34.30
2023-06-20T09:43:14.056Z,34.97
2023-06-20T09:45:41.875Z,35.65
2023-06-20T09:48:10.692Z,36.60
2023-06-20T09:50:40.012Z,37.50
2023-06-20T09:53:23.436Z,38.37
2023-06-20T09:55:52.893Z,39.09
2023-06-20T09:58:22.862Z,39.63
2023-06-20T10:00:51.262Z,40.03
2023-06-20T10:03:19.937Z,40.44
2023-06-20T10:05:48.368Z,40.31
2023-06-20T10:08:17.600Z,39.34
2023-06-20T10:10:45.342Z,38.89
2023-06-20T10:13:14.156Z,38.77
2023-06-20T10:15:41.912Z,38.38
2023-06-20T10:18:37.574Z,37.68
2023-06-20T10:21:07.477Z,38.12
2023-06-20T10:23:38.349Z,38.51
2023-06-20T10:26:09.493Z,38.61
2023-06-20T10:28:40.067Z,38.21
2023-06-20T10:31:08.281Z,37.66
2023-06-20T10:33:38.292Z,37.05
2023-06-20T10:36:11.208Z,36.77
2023-06-20T10:39:00.566Z,37.36
2023-06-20T10:41:29.899Z,38.02
2023-06-20T10:44:00.256Z,38.29
2023-06-20T10:46:43.282Z,38.68
2023-06-20T10:49:11.816Z,39.56
2023-06-20T10:51:47.210Z,39.82
2023-06-20T10:54:17.117Z,39.11
2023-06-20T10:56:45.402Z,38.08
2023-06-20T10:59:15.190Z,36.51
2023-06-20T11:01:44.782Z,35.61
2023-06-20T11:04:14.556Z,34.81
2023-06-20T11:06:43.492Z,34.44
2023-06-20T11:09:22.323Z,34.13
2023-06-20T11:11:52.267Z,34.36
2023-06-20T11:14:22.015Z,34.33
2023-06-20T11:16:52.243Z,35.34
2023-06-20T11:21:55.566Z,35.11
2023-06-20T11:24:23.502Z,34.84
2023-06-20T11:26:52.020Z,34.74
2023-06-20T11:29:19.835Z,34.75
2023-06-20T11:31:47.625Z,34.26
2023-06-20T11:34:18.246Z,34.18
2023-06-20T11:36:46.088Z,34.18
2023-06-20T11:39:15.413Z,34.10
2023-06-20T11:41:43.238Z,34.05
2023-06-20T11:44:26.204Z,34.03
2023-06-20T11:46:58.121Z,34.00
2023-06-20T11:49:33.138Z,33.98
2023-06-20T11:52:01.225Z,33.96
2023-06-20T11:54:29.183Z,34.13
2023-06-20T11:56:57.311Z,34.36
2023-06-20T11:59:25.889Z,34.82
2023-06-20T12:01:54.195Z,36.23
2023-06-20T12:04:23.325Z,37.63
2023-06-20T12:07:04.610Z,38.69
2023-06-20T12:09:41.975Z,39.44
2023-06-20T12:12:10.815Z,39.64
2023-06-20T12:14:39.064Z,39.72
2023-06-20T12:17:06.966Z,39.31
2023-06-20T12:19:36.216Z,38.12
2023-06-20T12:22:04.366Z,37.53
2023-06-20T12:24:32.208Z,36.89
2023-06-20T12:27:00.067Z,35.88
2023-06-20T12:29:27.925Z,35.56
2023-06-20T12:31:55.675Z,35.44
2023-06-20T12:34:23.433Z,35.87
2023-06-20T12:36:52.768Z,36.59
2023-06-20T12:39:20.638Z,36.65
2023-06-20T12:41:48.679Z,36.82
2023-06-20T12:44:16.489Z,37.84
2023-06-20T12:46:44.303Z,38.89
2023-06-20T12:49:12.066Z,39.72
2023-06-20T12:51:40.030Z,39.71
2023-06-20T12:54:07.784Z,39.20
2023-06-20T12:56:36.032Z,39.52
2023-06-20T12:59:05.485Z,39.91
2023-06-20T13:01:33.469Z,39.89
2023-06-20T13:04:01.369Z,39.92
2023-06-20T13:06:29.144Z,40.58
2023-06-20T13:08:56.886Z,40.89
2023-06-20T13:11:24.639Z,40.89
2023-06-20T13:13:52.396Z,41.11
2023-06-20T13:16:20.312Z,40.69
2023-06-20T13:18:48.312Z,39.81
2023-06-20T13:21:16.071Z,38.83
2023-06-20T13:23:53.073Z,38.20
2023-06-20T13:26:31.949Z,37.50
2023-06-20T13:29:00.145Z,37.08
2023-06-20T13:31:28.040Z,37.56
2023-06-20T13:33:55.868Z,38.19
2023-06-20T13:36:23.721Z,38.10
2023-06-20T13:38:51.656Z,38.00
2023-06-20T13:41:19.682Z,38.20
2023-06-20T13:43:47.486Z,39.06
2023-06-20T13:46:15.273Z,39.81
2023-06-20T13:48:43.080Z,39.89
2023-06-20T13:51:10.875Z,40.44
2023-06-20T13:53:38.614Z,40.95
2023-06-20T13:56:06.610Z,41.36
2023-06-20T13:58:34.575Z,41.68
2023-06-20T14:01:02.285Z,41.91
2023-06-20T14:03:30.103Z,41.97
2023-06-20T14:05:59.200Z,41.88
2023-06-20T14:08:27.511Z,41.83
2023-06-20T14:10:55.410Z,41.72
2023-06-20T14:13:24.213Z,41.55
2023-06-20T14:15:57.435Z,41.61
2023-06-20T14:18:27.329Z,41.48
2023-06-20T14:20:55.803Z,41.48
2023-06-20T14:23:26.206Z,41.70
2023-06-20T14:26:08.834Z,41.73
2023-06-20T14:28:39.755Z,42.14
2023-06-20T14:31:13.530Z,41.25
2023-06-20T14:33:42.281Z,41.03
2023-06-20T14:36:31.899Z,40.28
2023-06-20T14:38:59.641Z,39.51
2023-06-20T14:41:29.092Z,40.42
2023-06-20T14:43:57.080Z,41.09
2023-06-20T14:46:24.966Z,40.56
2023-06-20T14:48:53.290Z,39.67
2023-06-20T14:51:25.124Z,39.20
2023-06-20T14:53:54.388Z,39.73
2023-06-20T14:56:22.259Z,40.46
2023-06-20T14:58:50.117Z,40.99
2023-06-20T15:01:17.956Z,41.18
2023-06-20T15:03:45.807Z,41.36
2023-06-20T15:06:13.854Z,41.66
2023-06-20T15:08:41.620Z,41.88
2023-06-20T15:11:09.481Z,42.02
2023-06-20T15:13:37.239Z,42.17
2023-06-20T15:16:05.220Z,42.18
2023-06-20T15:18:33.469Z,42.04
2023-06-20T15:21:01.212Z,42.00
2023-06-20T15:23:29.093Z,41.91
2023-06-20T15:25:56.985Z,41.55
2023-06-20T15:28:24.976Z,40.95
2023-06-20T15:30:52.785Z,40.41
2023-06-20T15:33:20.546Z,39.30
2023-06-20T15:35:48.337Z,38.66
2023-06-20T15:38:16.065Z,38.00
2023-06-20T15:40:44.104Z,37.39
2023-06-20T15:43:12.210Z,37.02
2023-06-20T15:45:40.889Z,36.86
2023-06-20T15:48:10.453Z,36.83
2023-06-20T15:50:38.257Z,36.76
2023-06-20T15:53:06.978Z,36.61
2023-06-20T15:55:35.273Z,36.48
2023-06-20T15:58:03.903Z,36.34
2023-06-20T16:00:31.822Z,36.17
2023-06-20T16:03:00.591Z,36.04
2023-06-20T16:05:29.539Z,35.86
2023-06-20T16:07:58.718Z,35.73
2023-06-20T16:10:26.920Z,35.58
2023-06-20T16:12:55.301Z,35.35
2023-06-20T16:15:23.354Z,35.09
2023-06-20T16:17:51.278Z,34.93
2023-06-20T16:20:19.187Z,34.68
2023-06-20T16:22:46.952Z,34.57
2023-06-20T16:25:14.808Z,34.45
2023-06-20T16:27:42.676Z,34.30
2023-06-20T16:30:11.277Z,34.15
2023-06-20T16:32:41.444Z,34.04
2023-06-20T16:35:09.688Z,33.94
2023-06-20T16:44:41.988Z,33.60
2023-06-20T16:47:09.563Z,33.48
2023-06-20T16:49:36.729Z,33.51
2023-06-20T16:52:03.541Z,33.51
2023-06-20T16:54:30.291Z,33.51
2023-06-20T16:56:56.688Z,33.43
2023-06-20T16:59:23.151Z,33.35
2023-06-20T17:01:49.601Z,33.22
2023-06-20T17:04:15.977Z,33.09
2023-06-20T17:06:42.430Z,32.99
2023-06-20T17:09:09.366Z,32.87
2023-06-20T17:11:36.006Z,32.73
2023-06-20T17:14:05.406Z,32.59
2023-06-20T17:16:31.737Z,32.46
2023-06-20T17:18:59.997Z,32.35
2023-06-20T17:21:26.535Z,32.26
2023-06-20T17:24:04.036Z,32.15
2023-06-20T17:26:31.098Z,32.02
2023-06-20T17:28:59.937Z,31.91
2023-06-20T17:31:28.593Z,31.78
2023-06-20T17:33:55.937Z,31.65
2023-06-20T17:36:23.387Z,31.50
2023-06-20T17:38:53.430Z,31.35
2023-06-20T17:41:20.449Z,31.21
2023-06-20T17:43:50.271Z,31.06
2023-06-20T17:46:18.668Z,30.93
2023-06-20T17:48:45.069Z,30.81
2023-06-20T17:51:11.733Z,30.69
2023-06-20T17:53:39.920Z,30.58
2023-06-20T17:56:06.808Z,30.42
2023-06-20T17:58:34.288Z,30.26
2023-06-20T18:01:02.738Z,30.08
2023-06-20T18:03:29.368Z,29.88
2023-06-20T18:05:56.653Z,29.68
2023-06-20T18:08:24.312Z,29.53
2023-06-20T18:10:55.790Z,29.39
2023-06-20T18:13:22.235Z,29.26
2023-06-20T18:15:50.213Z,29.08
2023-06-20T18:18:16.540Z,28.91
2023-06-20T18:20:43.566Z,28.79
2023-06-20T18:23:13.896Z,28.69
2023-06-20T18:25:43.751Z,28.58
2023-06-20T18:28:10.842Z,28.47
2023-06-20T18:30:39.124Z,28.36
2023-06-20T18:33:08.273Z,28.20
2023-06-20T18:35:39.969Z,28.08
2023-06-20T18:38:07.946Z,27.98
2023-06-20T18:40:34.342Z,27.91
2023-06-20T18:43:04.271Z,27.83
2023-06-20T18:45:34.240Z,27.72
2023-06-20T18:48:01.632Z,27.61
2023-06-20T18:50:29.284Z,27.50
2023-06-20T18:52:58.028Z,27.41
2023-06-20T18:55:24.485Z,27.37
2023-06-20T18:57:51.195Z,27.29
2023-06-20T19:00:17.873Z,27.16
2023-06-20T19:02:45.372Z,27.03
2023-06-20T19:05:12.266Z,26.92
2023-06-20T19:07:38.672Z,26.78
2023-06-20T19:10:11.376Z,26.65
2023-06-20T19:12:39.030Z,26.55
2023-06-20T19:15:06.296Z,26.47
2023-06-20T19:17:32.849Z,26.37
2023-06-20T19:20:57.894Z,26.20
2023-06-20T19:23:26.187Z,26.04
2023-06-20T19:25:55.757Z,26.02
2023-06-20T19:28:23.660Z,25.99
2023-06-20T19:30:54.565Z,25.98
2023-06-20T19:33:22.515Z,25.91
2023-06-20T19:35:50.374Z,25.83
2023-06-20T19:38:22.549Z,25.76
2023-06-20T19:40:51.289Z,25.71
2023-06-20T19:43:19.491Z,25.63
2023-06-20T19:45:47.675Z,25.53
2023-06-20T19:48:17.220Z,25.48
2023-06-20T19:50:45.220Z,25.47
2023-06-20T19:53:13.087Z,25.44
2023-06-20T19:55:41.232Z,25.39
2023-06-20T19:58:09.184Z,25.30
2023-06-20T20:00:37.040Z,25.21
2023-06-20T20:03:08.314Z,25.13
2023-06-20T20:05:38.399Z,25.04
2023-06-20T20:08:07.194Z,24.99
2023-06-20T20:10:35.238Z,24.94
2023-06-20T20:13:03.383Z,24.85
2023-06-20T20:16:48.395Z,24.56
2023-06-20T20:19:18.334Z,24.46
2023-06-20T20:21:47.228Z,24.47
2023-06-20T20:24:15.931Z,24.45
2023-06-20T20:26:43.895Z,24.42
2023-06-20T20:29:11.961Z,24.38
2023-06-20T20:31:39.893Z,24.34
2023-06-20T20:34:08.111Z,24.31
2023-06-20T20:36:36.120Z,24.25
2023-06-20T20:39:04.905Z,24.20
2023-06-20T20:41:33.106Z,24.18
2023-06-20T20:44:00.954Z,24.12
2023-06-20T20:46:29.071Z,24.05
2023-06-20T20:48:57.780Z,24.03
2023-06-20T20:51:25.820Z,23.97
2023-06-20T20:53:53.755Z,23.93
2023-06-20T20:56:21.821Z,23.88
2023-06-20T20:58:49.731Z,23.84
2023-06-20T21:01:17.671Z,23.77
2023-06-20T21:03:46.465Z,23.67
2023-06-20T21:06:14.994Z,23.62
2023-06-20T21:08:43.106Z,23.57
2023-06-20T21:11:10.976Z,23.48
2023-06-20T21:13:39.144Z,23.43
2023-06-20T21:16:09.424Z,23.39
2023-06-20T21:18:37.320Z,23.31
2023-06-20T21:21:05.247Z,23.25
2023-06-20T21:23:33.291Z,23.21
2023-06-20T21:26:01.231Z,23.15
2023-06-20T21:28:29.125Z,23.08
2023-06-20T21:30:57.082Z,23.02
2023-06-20T21:33:24.899Z,23.04
2023-06-20T21:35:52.665Z,23.07
2023-06-20T21:38:20.781Z,23.06
2023-06-20T21:40:50.492Z,23.00
2023-06-20T21:43:18.475Z,22.95
2023-06-20T21:45:46.332Z,22.90
2023-06-20T21:48:14.431Z,22.84
2023-06-20T21:50:42.318Z,22.82
2023-06-20T21:53:12.517Z,22.77
2023-06-20T21:55:41.262Z,22.74
2023-06-20T21:58:09.663Z,22.71
2023-06-20T22:00:37.669Z,22.66
2023-06-20T22:03:05.676Z,22.64
2023-06-20T22:05:33.774Z,22.60
2023-06-20T22:08:02.498Z,22.58
2023-06-20T22:10:59.184Z,22.49
2023-06-20T22:13:45.562Z,22.41
2023-06-20T22:16:13.299Z,22.37
2023-06-20T22:18:41.210Z,22.33
2023-06-20T22:22:14.842Z,22.22
2023-06-20T22:24:42.557Z,22.09
2023-06-20T22:27:12.035Z,22.10
2023-06-20T22:29:40.486Z,22.10
2023-06-20T22:32:09.086Z,22.12
2023-06-20T22:34:37.047Z,22.11
2023-06-20T22:37:05.024Z,22.09
2023-06-20T22:39:33.272Z,22.11
2023-06-20T22:42:04.105Z,22.10
2023-06-20T22:44:32.024Z,22.08
2023-06-20T22:47:01.969Z,22.03
2023-06-20T22:49:29.826Z,22.04
2023-06-20T22:51:57.940Z,22.04
2023-06-20T22:54:26.170Z,22.03
2023-06-20T22:56:54.089Z,22.01
2023-06-20T22:59:22.092Z,21.99
2023-06-20T23:01:50.056Z,22.00
2023-06-20T23:04:17.878Z,22.00
2023-06-20T23:06:45.890Z,21.99
2023-06-20T23:09:13.680Z,21.95
2023-06-20T23:11:41.451Z,21.89
2023-06-20T23:14:09.329Z,21.87
2023-06-20T23:16:37.499Z,21.77
2023-06-20T23:19:05.241Z,21.73
2023-06-20T23:21:33.026Z,21.71
2023-06-20T23:24:05.019Z,21.72
2023-06-20T23:26:36.957Z,21.71
2023-06-20T23:29:05.968Z,21.74
2023-06-20T23:31:33.977Z,21.74
2023-06-20T23:34:01.993Z,21.72
2023-06-20T23:36:29.784Z,21.66
2023-06-20T23:38:57.981Z,21.62
2023-06-20T23:41:26.037Z,21.56
2023-06-20T23:43:54.737Z,21.54
2023-06-20T23:46:22.528Z,21.55
2023-06-20T23:48:50.473Z,21.58
2023-06-20T23:51:18.590Z,21.63
2023-06-20T23:53:46.858Z,21.71
2023-06-20T23:56:14.685Z,21.73
2023-06-20T23:58:42.493Z,21.76
